Katonah, NY (10536)

10:10 AM EDT on October 23, 2014 (GMT -0400)
Caramoor | Change Station
CLOSE
Current Station
Personal Weather Station
Location: Katonah, NY
Elevation: 564 ft
Nearby Weather Stations

Elev 564 ft 41.24 °N, 73.64 °W | Updated 49 seconds ago

Overcast
Overcast
46.5 °F
Feels Like 46 °F
N
1.0
Wind Variable Wind from East
Gusts 0.0 mph

Today
High -- | Low -- °F
--% Chance of Precip.
Yesterday
High -- | Low -- °F
Precip. -- in
7:15 AM 6:02 PM
Waning Crescent, 0% visible
Pressure 29.70 in
Visibility 10.0 miles
Clouds Few 2000 ft
Overcast 2600 ft
Windchill 46 °F
Dew Point 45 °F
Humidity 95%
Rainfall 0.00 in
Snow Depth Not available.
UV 1 out of 12
Pollen .10 out of 12
Ozone Good
PM2.5 Good
Flu Activity Sporadic
METAR KDXR 231353Z 31006KT 10SM FEW020 OVC026 09/06 A2971 RMK AO2 SLP058 T00940056

More Conditions Fewer Conditions

Pressure 29.70 in
Visibility 10.0 miles
Clouds Few 2000 ft
Overcast 2600 ft
Windchill 46 °F
Dew Point 45 °F
Humidity 95%
Rainfall 0.00 in
Snow Depth Not available.
UV 1 out of 12
Pollen .10 out of 12
Ozone Good
PM2.5 Good
Flu Activity Sporadic
METAR KDXR 231353Z 31006KT 10SM FEW020 OVC026 09/06 A2971 RMK AO2 SLP058 T00940056

More Conditions Fewer Conditions

10-Day Weather Forecast

Almanac

Astronomy

Oct. 23, 2014 Rise Set
Actual Time 7:15 AM EDT 6:02 PM EDT
Civil Twilight 6:47 AM EDT 6:30 PM EDT
Nautical Twilight 6:15 AM EDT 7:02 PM EDT
Astronomical Twilight 5:43 AM EDT 7:34 PM EDT
Moon 6:52 AM EDT 6:02 PM EDT
Length of Visible Light 11h 42m
Length of Day
10h 46m
Tomorrow will be 2m 34s shorter.
Waning Crescent, 0% of the Moon is Illuminated
Today
Waning Crescent
Oct 23
New
Oct 30
First Quarter
Nov 6
Full
Nov 14
Last Quarter

Today's Extremes

State Highs State Lows

Community

WunderPhotos

Upload Photos

1,764,256 photos uploaded!

Nearby

Air Quality

  Air Quality AQ Index Pollutant
Yesterday Good
OZONE
Yesterday Good
PM2.5
Current Good
OZONE
Current Good
PM2.5
Thursday Good
PM2.5

Snow Depth

Station Depth Elevation
No new snow has been reported.

Earthquake Activity

City Distance Mag. Time & Date
No recent earthquake activity has been reported nearby.
Minimum magnitude displayed is 2.5.

Coastal Water Temperatures

Place Temperature
Kings Point, NY 59.0 °F
Bridgeport, CT 60.1 °F

Nearby Weather Stations